sensor_id;sensor_type;location;lat;lon;timestamp;temperature;humidity
12922;DHT22;6528;48.086;16.282;2023-02-03T00:00:49;20.70;99.90
12922;DHT22;6528;48.086;16.282;2023-02-03T00:03:16;20.70;99.90
12922;DHT22;6528;48.086;16.282;2023-02-03T00:05:43;20.70;99.90
12922;DHT22;6528;48.086;16.282;2023-02-03T00:08:11;20.70;99.90
12922;DHT22;6528;48.086;16.282;2023-02-03T00:10:39;20.70;99.90
12922;DHT22;6528;48.086;16.282;2023-02-03T00:13:06;20.70;99.90
12922;DHT22;6528;48.086;16.282;2023-02-03T00:15:33;20.70;99.90
12922;DHT22;6528;48.086;16.282;2023-02-03T00:18:00;20.70;99.90
12922;DHT22;6528;48.086;16.282;2023-02-03T00:20:27;20.70;99.90
12922;DHT22;6528;48.086;16.282;2023-02-03T00:22:54;20.70;99.90
12922;DHT22;6528;48.086;16.282;2023-02-03T00:25:27;20.70;99.90
12922;DHT22;6528;48.086;16.282;2023-02-03T00:27:54;20.70;99.90
12922;DHT22;6528;48.086;16.282;2023-02-03T00:30:21;20.70;99.90
12922;DHT22;6528;48.086;16.282;2023-02-03T00:32:48;20.70;99.90
12922;DHT22;6528;48.086;16.282;2023-02-03T00:35:14;20.70;99.90
12922;DHT22;6528;48.086;16.282;2023-02-03T00:37:41;20.70;99.90
12922;DHT22;6528;48.086;16.282;2023-02-03T00:40:08;20.70;99.90
12922;DHT22;6528;48.086;16.282;2023-02-03T00:42:35;20.70;99.90
12922;DHT22;6528;48.086;16.282;2023-02-03T00:45:02;20.70;99.90
12922;DHT22;6528;48.086;16.282;2023-02-03T00:47:29;20.60;99.90
12922;DHT22;6528;48.086;16.282;2023-02-03T00:49:56;20.70;99.90
12922;DHT22;6528;48.086;16.282;2023-02-03T00:52:23;20.70;99.90
12922;DHT22;6528;48.086;16.282;2023-02-03T00:54:50;20.60;99.90
12922;DHT22;6528;48.086;16.282;2023-02-03T00:57:17;20.60;99.90
12922;DHT22;6528;48.086;16.282;2023-02-03T00:59:43;20.70;99.90
12922;DHT22;6528;48.086;16.282;2023-02-03T01:02:10;20.60;99.90
12922;DHT22;6528;48.086;16.282;2023-02-03T01:04:37;20.60;99.90
12922;DHT22;6528;48.086;16.282;2023-02-03T01:07:04;20.60;99.90
12922;DHT22;6528;48.086;16.282;2023-02-03T01:09:34;20.60;99.90
12922;DHT22;6528;48.086;16.282;2023-02-03T01:12:03;20.60;99.90
12922;DHT22;6528;48.086;16.282;2023-02-03T01:14:30;20.60;99.90
12922;DHT22;6528;48.086;16.282;2023-02-03T01:16:57;20.60;99.90
12922;DHT22;6528;48.086;16.282;2023-02-03T01:19:24;20.60;99.90
12922;DHT22;6528;48.086;16.282;2023-02-03T01:21:50;20.60;99.90
12922;DHT22;6528;48.086;16.282;2023-02-03T01:24:17;20.60;99.90
12922;DHT22;6528;48.086;16.282;2023-02-03T01:26:44;20.60;99.90
12922;DHT22;6528;48.086;16.282;2023-02-03T01:29:11;20.60;99.90
12922;DHT22;6528;48.086;16.282;2023-02-03T01:31:39;20.60;99.90
12922;DHT22;6528;48.086;16.282;2023-02-03T01:34:11;20.60;99.90
12922;DHT22;6528;48.086;16.282;2023-02-03T01:36:38;20.60;99.90
12922;DHT22;6528;48.086;16.282;2023-02-03T01:39:05;20.50;99.90
12922;DHT22;6528;48.086;16.282;2023-02-03T01:41:34;20.60;99.90
12922;DHT22;6528;48.086;16.282;2023-02-03T01:46:57;20.60;99.90
12922;DHT22;6528;48.086;16.282;2023-02-03T01:49:32;20.60;99.90
12922;DHT22;6528;48.086;16.282;2023-02-03T01:52:01;20.50;99.90
12922;DHT22;6528;48.086;16.282;2023-02-03T01:54:36;20.60;99.90
12922;DHT22;6528;48.086;16.282;2023-02-03T01:57:12;20.50;99.90
12922;DHT22;6528;48.086;16.282;2023-02-03T01:59:41;20.50;99.90
12922;DHT22;6528;48.086;16.282;2023-02-03T02:02:09;20.60;99.90
12922;DHT22;6528;48.086;16.282;2023-02-03T02:04:52;20.60;99.90
12922;DHT22;6528;48.086;16.282;2023-02-03T02:07:22;20.60;99.90
12922;DHT22;6528;48.086;16.282;2023-02-03T02:09:50;20.50;99.90
12922;DHT22;6528;48.086;16.282;2023-02-03T02:12:17;20.50;99.90
12922;DHT22;6528;48.086;16.282;2023-02-03T02:14:44;20.60;99.90
12922;DHT22;6528;48.086;16.282;2023-02-03T02:23:18;20.50;99.90
12922;DHT22;6528;48.086;16.282;2023-02-03T02:32:27;20.50;99.90
12922;DHT22;6528;48.086;16.282;2023-02-03T02:38:12;20.50;99.90
12922;DHT22;6528;48.086;16.282;2023-02-03T02:43:46;20.50;99.90
12922;DHT22;6528;48.086;16.282;2023-02-03T02:46:17;20.50;99.90
12922;DHT22;6528;48.086;16.282;2023-02-03T02:51:33;20.50;99.90
12922;DHT22;6528;48.086;16.282;2023-02-03T02:54:05;20.50;99.90
12922;DHT22;6528;48.086;16.282;2023-02-03T02:56:34;20.50;99.90
12922;DHT22;6528;48.086;16.282;2023-02-03T02:59:03;20.50;99.90
12922;DHT22;6528;48.086;16.282;2023-02-03T03:01:31;20.50;99.90
12922;DHT22;6528;48.086;16.282;2023-02-03T03:04:00;20.50;99.90
12922;DHT22;6528;48.086;16.282;2023-02-03T03:06:50;20.50;99.90
12922;DHT22;6528;48.086;16.282;2023-02-03T03:09:22;20.50;99.90
12922;DHT22;6528;48.086;16.282;2023-02-03T03:11:55;20.50;99.90
12922;DHT22;6528;48.086;16.282;2023-02-03T03:14:25;20.50;99.90
12922;DHT22;6528;48.086;16.282;2023-02-03T03:16:59;20.50;99.90
12922;DHT22;6528;48.086;16.282;2023-02-03T03:19:33;20.50;99.90
12922;DHT22;6528;48.086;16.282;2023-02-03T03:22:04;20.50;99.90
12922;DHT22;6528;48.086;16.282;2023-02-03T03:24:34;20.50;99.90
12922;DHT22;6528;48.086;16.282;2023-02-03T03:27:13;20.50;99.90
12922;DHT22;6528;48.086;16.282;2023-02-03T03:29:42;20.50;99.90
12922;DHT22;6528;48.086;16.282;2023-02-03T03:32:10;20.50;99.90
12922;DHT22;6528;48.086;16.282;2023-02-03T03:34:37;20.50;99.90
12922;DHT22;6528;48.086;16.282;2023-02-03T03:37:13;20.50;99.90
12922;DHT22;6528;48.086;16.282;2023-02-03T03:40:07;20.40;99.90
12922;DHT22;6528;48.086;16.282;2023-02-03T03:42:44;20.40;99.90
12922;DHT22;6528;48.086;16.282;2023-02-03T03:45:26;20.50;99.90
12922;DHT22;6528;48.086;16.282;2023-02-03T03:47:58;20.40;99.90
12922;DHT22;6528;48.086;16.282;2023-02-03T03:50:50;20.40;99.90
12922;DHT22;6528;48.086;16.282;2023-02-03T03:53:19;20.40;99.90
12922;DHT22;6528;48.086;16.282;2023-02-03T03:55:49;20.40;99.90
12922;DHT22;6528;48.086;16.282;2023-02-03T03:58:23;20.40;99.90
12922;DHT22;6528;48.086;16.282;2023-02-03T04:00:54;20.40;99.90
12922;DHT22;6528;48.086;16.282;2023-02-03T04:03:24;20.40;99.90
12922;DHT22;6528;48.086;16.282;2023-02-03T04:05:53;20.40;99.90
12922;DHT22;6528;48.086;16.282;2023-02-03T04:08:20;20.40;99.90
12922;DHT22;6528;48.086;16.282;2023-02-03T04:10:46;20.40;99.90
12922;DHT22;6528;48.086;16.282;2023-02-03T04:13:13;20.40;99.90
12922;DHT22;6528;48.086;16.282;2023-02-03T04:15:41;20.40;99.90
12922;DHT22;6528;48.086;16.282;2023-02-03T04:18:11;20.40;99.90
12922;DHT22;6528;48.086;16.282;2023-02-03T04:20:38;20.40;99.90
12922;DHT22;6528;48.086;16.282;2023-02-03T04:23:05;20.40;99.90
12922;DHT22;6528;48.086;16.282;2023-02-03T04:25:32;20.40;99.90
12922;DHT22;6528;48.086;16.282;2023-02-03T04:27:58;20.40;99.90
12922;DHT22;6528;48.086;16.282;2023-02-03T04:30:26;20.40;99.90
12922;DHT22;6528;48.086;16.282;2023-02-03T04:32:53;20.40;99.90
12922;DHT22;6528;48.086;16.282;2023-02-03T04:35:20;20.40;99.90
12922;DHT22;6528;48.086;16.282;2023-02-03T04:37:47;20.40;99.90
12922;DHT22;6528;48.086;16.282;2023-02-03T04:40:14;20.40;99.90
12922;DHT22;6528;48.086;16.282;2023-02-03T04:42:41;20.40;99.90
12922;DHT22;6528;48.086;16.282;2023-02-03T04:45:09;20.30;99.90
12922;DHT22;6528;48.086;16.282;2023-02-03T04:47:36;20.30;99.90
12922;DHT22;6528;48.086;16.282;2023-02-03T04:50:03;20.40;99.90
12922;DHT22;6528;48.086;16.282;2023-02-03T04:52:30;20.30;99.90
12922;DHT22;6528;48.086;16.282;2023-02-03T04:54:56;20.40;99.90
12922;DHT22;6528;48.086;16.282;2023-02-03T04:57:23;20.30;99.90
12922;DHT22;6528;48.086;16.282;2023-02-03T04:59:50;20.40;99.90
12922;DHT22;6528;48.086;16.282;2023-02-03T05:02:16;20.40;99.90
12922;DHT22;6528;48.086;16.282;2023-02-03T05:04:43;20.40;99.90
12922;DHT22;6528;48.086;16.282;2023-02-03T05:07:10;20.40;99.90
12922;DHT22;6528;48.086;16.282;2023-02-03T05:09:37;20.40;99.90
12922;DHT22;6528;48.086;16.282;2023-02-03T05:12:03;20.40;99.90
12922;DHT22;6528;48.086;16.282;2023-02-03T05:14:30;20.40;99.90
12922;DHT22;6528;48.086;16.282;2023-02-03T05:16:57;20.40;99.90
12922;DHT22;6528;48.086;16.282;2023-02-03T05:19:24;20.40;99.90
12922;DHT22;6528;48.086;16.282;2023-02-03T05:21:50;20.40;99.90
12922;DHT22;6528;48.086;16.282;2023-02-03T05:24:17;20.40;99.90
12922;DHT22;6528;48.086;16.282;2023-02-03T05:26:44;20.40;99.90
12922;DHT22;6528;48.086;16.282;2023-02-03T05:29:10;20.40;99.90
12922;DHT22;6528;48.086;16.282;2023-02-03T05:31:37;20.40;99.90
12922;DHT22;6528;48.086;16.282;2023-02-03T05:34:04;20.40;99.90
12922;DHT22;6528;48.086;16.282;2023-02-03T05:36:31;20.40;99.90
12922;DHT22;6528;48.086;16.282;2023-02-03T05:38:58;20.40;99.90
12922;DHT22;6528;48.086;16.282;2023-02-03T05:41:24;20.40;99.90
12922;DHT22;6528;48.086;16.282;2023-02-03T05:44:23;20.40;99.90
12922;DHT22;6528;48.086;16.282;2023-02-03T05:46:52;20.40;99.90
12922;DHT22;6528;48.086;16.282;2023-02-03T05:49:19;20.40;99.90
12922;DHT22;6528;48.086;16.282;2023-02-03T05:51:46;20.40;99.90
12922;DHT22;6528;48.086;16.282;2023-02-03T05:54:13;20.40;99.90
12922;DHT22;6528;48.086;16.282;2023-02-03T05:56:40;20.40;99.90
12922;DHT22;6528;48.086;16.282;2023-02-03T05:59:08;20.40;99.90
12922;DHT22;6528;48.086;16.282;2023-02-03T06:01:35;20.40;99.90
12922;DHT22;6528;48.086;16.282;2023-02-03T06:04:02;20.40;99.90
12922;DHT22;6528;48.086;16.282;2023-02-03T06:06:30;20.40;99.90
12922;DHT22;6528;48.086;16.282;2023-02-03T06:09:04;20.40;99.90
12922;DHT22;6528;48.086;16.282;2023-02-03T06:11:31;20.40;99.90
12922;DHT22;6528;48.086;16.282;2023-02-03T06:13:59;20.40;99.90
12922;DHT22;6528;48.086;16.282;2023-02-03T06:16:27;20.40;99.90
12922;DHT22;6528;48.086;16.282;2023-02-03T06:18:55;20.40;99.90
12922;DHT22;6528;48.086;16.282;2023-02-03T06:21:25;20.40;99.90
12922;DHT22;6528;48.086;16.282;2023-02-03T06:23:52;20.40;99.90
12922;DHT22;6528;48.086;16.282;2023-02-03T06:26:18;20.40;99.90
12922;DHT22;6528;48.086;16.282;2023-02-03T06:28:46;20.40;99.90
12922;DHT22;6528;48.086;16.282;2023-02-03T06:31:13;20.40;99.90
12922;DHT22;6528;48.086;16.282;2023-02-03T06:33:40;20.40;99.90
12922;DHT22;6528;48.086;16.282;2023-02-03T06:36:06;20.40;99.90
12922;DHT22;6528;48.086;16.282;2023-02-03T06:38:33;20.40;99.90
12922;DHT22;6528;48.086;16.282;2023-02-03T06:41:00;20.40;99.90
12922;DHT22;6528;48.086;16.282;2023-02-03T06:43:27;20.40;99.90
12922;DHT22;6528;48.086;16.282;2023-02-03T06:45:53;20.40;99.90
12922;DHT22;6528;48.086;16.282;2023-02-03T06:48:20;20.40;99.90
12922;DHT22;6528;48.086;16.282;2023-02-03T06:50:47;20.40;99.90
12922;DHT22;6528;48.086;16.282;2023-02-03T06:53:14;20.40;99.90
12922;DHT22;6528;48.086;16.282;2023-02-03T06:55:41;20.50;99.90
12922;DHT22;6528;48.086;16.282;2023-02-03T06:58:07;20.40;99.90
12922;DHT22;6528;48.086;16.282;2023-02-03T07:00:34;20.40;99.90
12922;DHT22;6528;48.086;16.282;2023-02-03T07:03:01;20.40;99.90
12922;DHT22;6528;48.086;16.282;2023-02-03T07:05:28;20.50;99.90
12922;DHT22;6528;48.086;16.282;2023-02-03T07:07:55;20.40;99.90
12922;DHT22;6528;48.086;16.282;2023-02-03T07:10:22;20.50;99.90
12922;DHT22;6528;48.086;16.282;2023-02-03T07:12:48;20.50;99.90
12922;DHT22;6528;48.086;16.282;2023-02-03T07:15:17;20.50;99.90
12922;DHT22;6528;48.086;16.282;2023-02-03T07:17:46;20.50;99.90
12922;DHT22;6528;48.086;16.282;2023-02-03T07:20:21;20.50;99.90
12922;DHT22;6528;48.086;16.282;2023-02-03T07:22:55;20.50;99.90
12922;DHT22;6528;48.086;16.282;2023-02-03T07:25:23;20.50;99.90
12922;DHT22;6528;48.086;16.282;2023-02-03T07:27:50;20.50;99.90
12922;DHT22;6528;48.086;16.282;2023-02-03T07:30:17;20.50;99.90
12922;DHT22;6528;48.086;16.282;2023-02-03T07:32:48;20.50;99.90
12922;DHT22;6528;48.086;16.282;2023-02-03T07:35:15;20.50;99.90
12922;DHT22;6528;48.086;16.282;2023-02-03T07:37:42;20.50;99.90
12922;DHT22;6528;48.086;16.282;2023-02-03T07:40:11;20.50;99.90
12922;DHT22;6528;48.086;16.282;2023-02-03T07:42:41;20.60;99.90
12922;DHT22;6528;48.086;16.282;2023-02-03T07:45:09;20.60;99.90
12922;DHT22;6528;48.086;16.282;2023-02-03T07:47:36;20.60;99.90
12922;DHT22;6528;48.086;16.282;2023-02-03T07:50:03;20.60;99.90
12922;DHT22;6528;48.086;16.282;2023-02-03T07:52:30;20.60;99.90
12922;DHT22;6528;48.086;16.282;2023-02-03T07:54:57;20.70;99.90
12922;DHT22;6528;48.086;16.282;2023-02-03T07:57:23;20.70;99.90
12922;DHT22;6528;48.086;16.282;2023-02-03T07:59:50;20.70;99.90
12922;DHT22;6528;48.086;16.282;2023-02-03T08:02:17;20.70;99.90
12922;DHT22;6528;48.086;16.282;2023-02-03T08:04:43;20.70;99.90
12922;DHT22;6528;48.086;16.282;2023-02-03T08:07:10;20.80;99.90
12922;DHT22;6528;48.086;16.282;2023-02-03T08:09:37;20.80;99.90
12922;DHT22;6528;48.086;16.282;2023-02-03T08:12:04;20.80;99.90
12922;DHT22;6528;48.086;16.282;2023-02-03T08:14:31;20.90;99.90
12922;DHT22;6528;48.086;16.282;2023-02-03T08:16:57;20.90;99.90
12922;DHT22;6528;48.086;16.282;2023-02-03T08:19:24;20.90;99.90
12922;DHT22;6528;48.086;16.282;2023-02-03T08:21:51;20.90;99.90
12922;DHT22;6528;48.086;16.282;2023-02-03T08:24:17;20.90;99.90
12922;DHT22;6528;48.086;16.282;2023-02-03T08:26:44;20.90;99.90
12922;DHT22;6528;48.086;16.282;2023-02-03T08:29:11;20.90;99.90
12922;DHT22;6528;48.086;16.282;2023-02-03T08:31:39;20.90;99.90
12922;DHT22;6528;48.086;16.282;2023-02-03T08:34:06;20.90;99.90
12922;DHT22;6528;48.086;16.282;2023-02-03T08:36:33;20.90;99.90
12922;DHT22;6528;48.086;16.282;2023-02-03T08:39:02;20.90;99.90
12922;DHT22;6528;48.086;16.282;2023-02-03T08:41:29;20.90;99.90
12922;DHT22;6528;48.086;16.282;2023-02-03T08:43:55;20.90;99.90
12922;DHT22;6528;48.086;16.282;2023-02-03T08:46:23;21.00;99.90
12922;DHT22;6528;48.086;16.282;2023-02-03T08:48:50;21.00;99.90
12922;DHT22;6528;48.086;16.282;2023-02-03T08:51:18;21.00;99.90
12922;DHT22;6528;48.086;16.282;2023-02-03T08:53:45;21.00;99.90
12922;DHT22;6528;48.086;16.282;2023-02-03T08:56:12;21.00;99.90
12922;DHT22;6528;48.086;16.282;2023-02-03T08:58:39;20.90;99.90
12922;DHT22;6528;48.086;16.282;2023-02-03T09:01:11;20.90;99.90
12922;DHT22;6528;48.086;16.282;2023-02-03T09:03:38;20.90;99.90
12922;DHT22;6528;48.086;16.282;2023-02-03T09:06:06;20.90;99.90
12922;DHT22;6528;48.086;16.282;2023-02-03T09:08:33;20.90;99.90
12922;DHT22;6528;48.086;16.282;2023-02-03T09:11:00;20.90;99.90
12922;DHT22;6528;48.086;16.282;2023-02-03T09:13:26;20.90;99.90
12922;DHT22;6528;48.086;16.282;2023-02-03T09:15:53;20.90;99.90
12922;DHT22;6528;48.086;16.282;2023-02-03T09:18:20;20.90;99.90
12922;DHT22;6528;48.086;16.282;2023-02-03T09:20:46;20.90;99.90
12922;DHT22;6528;48.086;16.282;2023-02-03T09:23:13;20.90;99.90
12922;DHT22;6528;48.086;16.282;2023-02-03T09:25:40;20.90;99.90
12922;DHT22;6528;48.086;16.282;2023-02-03T09:28:11;20.90;99.90
12922;DHT22;6528;48.086;16.282;2023-02-03T09:30:38;20.90;99.90
12922;DHT22;6528;48.086;16.282;2023-02-03T09:33:05;20.90;99.90
12922;DHT22;6528;48.086;16.282;2023-02-03T09:35:32;20.80;99.90
12922;DHT22;6528;48.086;16.282;2023-02-03T09:37:58;20.80;99.90
12922;DHT22;6528;48.086;16.282;2023-02-03T09:40:30;20.80;99.90
12922;DHT22;6528;48.086;16.282;2023-02-03T09:46:29;20.90;99.90
12922;DHT22;6528;48.086;16.282;2023-02-03T09:51:51;20.90;99.90
12922;DHT22;6528;48.086;16.282;2023-02-03T09:54:26;20.90;99.90
12922;DHT22;6528;48.086;16.282;2023-02-03T09:56:56;20.90;99.90
12922;DHT22;6528;48.086;16.282;2023-02-03T09:59:27;20.90;99.90
12922;DHT22;6528;48.086;16.282;2023-02-03T10:01:59;21.00;99.90
12922;DHT22;6528;48.086;16.282;2023-02-03T10:04:36;21.00;99.90
12922;DHT22;6528;48.086;16.282;2023-02-03T10:07:46;21.00;99.90
12922;DHT22;6528;48.086;16.282;2023-02-03T10:10:17;21.00;99.90
12922;DHT22;6528;48.086;16.282;2023-02-03T10:15:42;21.00;99.90
12922;DHT22;6528;48.086;16.282;2023-02-03T10:18:18;21.00;99.90
12922;DHT22;6528;48.086;16.282;2023-02-03T10:20:52;21.00;99.90
12922;DHT22;6528;48.086;16.282;2023-02-03T10:23:32;21.00;99.90
12922;DHT22;6528;48.086;16.282;2023-02-03T10:26:02;21.00;99.90
12922;DHT22;6528;48.086;16.282;2023-02-03T10:28:45;21.10;99.90
12922;DHT22;6528;48.086;16.282;2023-02-03T10:31:18;21.10;99.90
12922;DHT22;6528;48.086;16.282;2023-02-03T10:33:46;21.10;99.90
12922;DHT22;6528;48.086;16.282;2023-02-03T10:36:20;21.10;99.90
12922;DHT22;6528;48.086;16.282;2023-02-03T10:41:21;21.10;99.90
12922;DHT22;6528;48.086;16.282;2023-02-03T10:43:49;21.10;99.90
12922;DHT22;6528;48.086;16.282;2023-02-03T10:46:18;21.10;99.90
12922;DHT22;6528;48.086;16.282;2023-02-03T10:48:46;21.10;99.90
12922;DHT22;6528;48.086;16.282;2023-02-03T10:51:22;21.20;99.90
12922;DHT22;6528;48.086;16.282;2023-02-03T10:53:50;21.20;99.90
12922;DHT22;6528;48.086;16.282;2023-02-03T10:56:25;21.20;99.90
12922;DHT22;6528;48.086;16.282;2023-02-03T10:58:54;21.20;99.90
12922;DHT22;6528;48.086;16.282;2023-02-03T11:01:43;21.20;99.90
12922;DHT22;6528;48.086;16.282;2023-02-03T11:04:39;21.30;99.90
12922;DHT22;6528;48.086;16.282;2023-02-03T11:07:24;21.20;99.90
12922;DHT22;6528;48.086;16.282;2023-02-03T11:09:52;21.30;99.90
12922;DHT22;6528;48.086;16.282;2023-02-03T11:12:19;21.30;99.90
12922;DHT22;6528;48.086;16.282;2023-02-03T11:14:53;21.30;99.90
12922;DHT22;6528;48.086;16.282;2023-02-03T11:17:22;21.30;99.90
12922;DHT22;6528;48.086;16.282;2023-02-03T11:19:51;21.30;99.90
12922;DHT22;6528;48.086;16.282;2023-02-03T11:22:30;21.40;99.90
12922;DHT22;6528;48.086;16.282;2023-02-03T11:24:58;21.30;99.90
12922;DHT22;6528;48.086;16.282;2023-02-03T11:27:29;21.40;99.90
12922;DHT22;6528;48.086;16.282;2023-02-03T11:32:40;21.40;99.90
12922;DHT22;6528;48.086;16.282;2023-02-03T11:35:19;21.40;99.90
12922;DHT22;6528;48.086;16.282;2023-02-03T11:37:54;21.40;99.90
12922;DHT22;6528;48.086;16.282;2023-02-03T11:45:25;21.50;99.90
12922;DHT22;6528;48.086;16.282;2023-02-03T12:25:28;21.40;99.90
12922;DHT22;6528;48.086;16.282;2023-02-03T12:28:30;21.50;99.90
12922;DHT22;6528;48.086;16.282;2023-02-03T12:31:06;21.50;99.90
12922;DHT22;6528;48.086;16.282;2023-02-03T12:33:41;21.50;99.90
12922;DHT22;6528;48.086;16.282;2023-02-03T12:36:26;21.50;99.90
12922;DHT22;6528;48.086;16.282;2023-02-03T12:39:04;21.50;99.90
12922;DHT22;6528;48.086;16.282;2023-02-03T12:41:39;21.50;99.90
12922;DHT22;6528;48.086;16.282;2023-02-03T12:44:24;21.60;99.90
12922;DHT22;6528;48.086;16.282;2023-02-03T12:47:21;21.60;99.90
12922;DHT22;6528;48.086;16.282;2023-02-03T12:49:59;21.60;99.90
12922;DHT22;6528;48.086;16.282;2023-02-03T12:52:37;21.60;99.90
12922;DHT22;6528;48.086;16.282;2023-02-03T12:58:09;21.70;99.90
12922;DHT22;6528;48.086;16.282;2023-02-03T13:00:54;21.60;99.90
12922;DHT22;6528;48.086;16.282;2023-02-03T13:14:13;21.70;99.90
12922;DHT22;6528;48.086;16.282;2023-02-03T13:16:44;21.70;99.90
12922;DHT22;6528;48.086;16.282;2023-02-03T13:19:20;21.70;99.90
12922;DHT22;6528;48.086;16.282;2023-02-03T13:21:48;21.70;99.90
12922;DHT22;6528;48.086;16.282;2023-02-03T13:24:16;21.80;99.90
12922;DHT22;6528;48.086;16.282;2023-02-03T13:29:43;21.70;99.90
12922;DHT22;6528;48.086;16.282;2023-02-03T13:32:41;21.80;99.90
12922;DHT22;6528;48.086;16.282;2023-02-03T13:41:53;21.80;99.90
12922;DHT22;6528;48.086;16.282;2023-02-03T13:44:15;21.80;99.90
12922;DHT22;6528;48.086;16.282;2023-02-03T13:46:46;21.90;99.90
12922;DHT22;6528;48.086;16.282;2023-02-03T13:49:34;21.90;99.90
12922;DHT22;6528;48.086;16.282;2023-02-03T13:52:02;21.90;99.90
12922;DHT22;6528;48.086;16.282;2023-02-03T13:54:33;21.90;99.90
12922;DHT22;6528;48.086;16.282;2023-02-03T13:57:14;21.90;99.90
12922;DHT22;6528;48.086;16.282;2023-02-03T13:59:44;22.00;99.90
12922;DHT22;6528;48.086;16.282;2023-02-03T14:07:37;22.00;99.90
12922;DHT22;6528;48.086;16.282;2023-02-03T14:13:17;22.00;99.90
12922;DHT22;6528;48.086;16.282;2023-02-03T14:19:01;22.10;99.90
12922;DHT22;6528;48.086;16.282;2023-02-03T14:21:37;22.10;99.90
12922;DHT22;6528;48.086;16.282;2023-02-03T14:24:08;22.10;99.90
12922;DHT22;6528;48.086;16.282;2023-02-03T14:26:39;22.10;99.90
12922;DHT22;6528;48.086;16.282;2023-02-03T14:29:09;22.10;99.90
12922;DHT22;6528;48.086;16.282;2023-02-03T14:32:07;22.10;99.90
12922;DHT22;6528;48.086;16.282;2023-02-03T14:34:47;22.10;99.90
12922;DHT22;6528;48.086;16.282;2023-02-03T14:37:28;22.10;99.90
12922;DHT22;6528;48.086;16.282;2023-02-03T14:48:06;22.20;99.90
12922;DHT22;6528;48.086;16.282;2023-02-03T15:00:29;22.20;99.90
12922;DHT22;6528;48.086;16.282;2023-02-03T15:02:31;22.20;99.90
12922;DHT22;6528;48.086;16.282;2023-02-03T15:07:41;22.20;99.90
12922;DHT22;6528;48.086;16.282;2023-02-03T15:10:23;22.20;99.90
12922;DHT22;6528;48.086;16.282;2023-02-03T15:12:53;22.20;99.90
12922;DHT22;6528;48.086;16.282;2023-02-03T15:17:51;22.30;99.90
12922;DHT22;6528;48.086;16.282;2023-02-03T15:20:40;22.30;99.90
12922;DHT22;6528;48.086;16.282;2023-02-03T15:26:01;22.30;99.90
12922;DHT22;6528;48.086;16.282;2023-02-03T15:28:28;22.20;99.90
12922;DHT22;6528;48.086;16.282;2023-02-03T15:33:35;22.20;99.90
12922;DHT22;6528;48.086;16.282;2023-02-03T15:36:26;22.20;99.90
12922;DHT22;6528;48.086;16.282;2023-02-03T15:41:56;22.10;99.90
12922;DHT22;6528;48.086;16.282;2023-02-03T15:44:33;22.10;99.90
12922;DHT22;6528;48.086;16.282;2023-02-03T15:47:02;22.00;99.90
12922;DHT22;6528;48.086;16.282;2023-02-03T15:49:37;22.10;99.90
12922;DHT22;6528;48.086;16.282;2023-02-03T15:52:27;22.00;99.90
12922;DHT22;6528;48.086;16.282;2023-02-03T15:55:13;22.00;99.90
12922;DHT22;6528;48.086;16.282;2023-02-03T15:57:43;22.00;99.90
12922;DHT22;6528;48.086;16.282;2023-02-03T16:00:26;22.00;99.90
12922;DHT22;6528;48.086;16.282;2023-02-03T16:02:54;21.90;99.90
12922;DHT22;6528;48.086;16.282;2023-02-03T16:05:26;21.80;99.90
12922;DHT22;6528;48.086;16.282;2023-02-03T16:07:54;21.70;99.90
12922;DHT22;6528;48.086;16.282;2023-02-03T16:10:28;21.70;99.90
12922;DHT22;6528;48.086;16.282;2023-02-03T16:15:58;21.60;99.90
12922;DHT22;6528;48.086;16.282;2023-02-03T16:18:26;21.50;99.90
12922;DHT22;6528;48.086;16.282;2023-02-03T16:20:53;21.50;99.90
12922;DHT22;6528;48.086;16.282;2023-02-03T16:23:22;21.50;99.90
12922;DHT22;6528;48.086;16.282;2023-02-03T16:26:17;21.40;99.90
12922;DHT22;6528;48.086;16.282;2023-02-03T16:29:15;21.40;99.90
12922;DHT22;6528;48.086;16.282;2023-02-03T16:32:00;21.30;99.90
12922;DHT22;6528;48.086;16.282;2023-02-03T16:34:46;21.30;99.90
12922;DHT22;6528;48.086;16.282;2023-02-03T16:37:34;21.20;99.90
12922;DHT22;6528;48.086;16.282;2023-02-03T16:40:27;21.20;99.90
12922;DHT22;6528;48.086;16.282;2023-02-03T16:43:14;21.10;99.90
12922;DHT22;6528;48.086;16.282;2023-02-03T16:46:00;21.00;99.90
12922;DHT22;6528;48.086;16.282;2023-02-03T16:48:46;21.00;99.90
12922;DHT22;6528;48.086;16.282;2023-02-03T16:51:39;21.00;99.90
12922;DHT22;6528;48.086;16.282;2023-02-03T16:54:10;21.00;99.90
12922;DHT22;6528;48.086;16.282;2023-02-03T16:56:38;21.00;99.90
12922;DHT22;6528;48.086;16.282;2023-02-03T16:59:05;20.90;99.90
12922;DHT22;6528;48.086;16.282;2023-02-03T17:01:32;20.90;99.90
12922;DHT22;6528;48.086;16.282;2023-02-03T17:03:58;20.90;99.90
12922;DHT22;6528;48.086;16.282;2023-02-03T17:06:25;20.90;99.90
12922;DHT22;6528;48.086;16.282;2023-02-03T17:08:52;20.90;99.90
12922;DHT22;6528;48.086;16.282;2023-02-03T17:11:21;20.90;99.90
12922;DHT22;6528;48.086;16.282;2023-02-03T17:13:49;20.90;99.90
12922;DHT22;6528;48.086;16.282;2023-02-03T17:16:19;20.90;99.90
12922;DHT22;6528;48.086;16.282;2023-02-03T17:18:46;20.90;99.90
12922;DHT22;6528;48.086;16.282;2023-02-03T17:21:18;20.80;99.90
12922;DHT22;6528;48.086;16.282;2023-02-03T17:23:45;20.90;99.90
12922;DHT22;6528;48.086;16.282;2023-02-03T17:26:12;20.90;99.90
12922;DHT22;6528;48.086;16.282;2023-02-03T17:28:40;20.80;99.90
12922;DHT22;6528;48.086;16.282;2023-02-03T17:31:15;20.80;99.90
12922;DHT22;6528;48.086;16.282;2023-02-03T17:33:42;20.80;99.90
12922;DHT22;6528;48.086;16.282;2023-02-03T17:36:14;20.80;99.90
12922;DHT22;6528;48.086;16.282;2023-02-03T17:38:43;20.70;99.90
12922;DHT22;6528;48.086;16.282;2023-02-03T17:41:28;20.70;99.90
12922;DHT22;6528;48.086;16.282;2023-02-03T17:44:12;20.70;99.90
12922;DHT22;6528;48.086;16.282;2023-02-03T17:46:56;20.70;99.90
12922;DHT22;6528;48.086;16.282;2023-02-03T17:49:40;20.70;99.90
12922;DHT22;6528;48.086;16.282;2023-02-03T17:52:25;20.70;99.90
12922;DHT22;6528;48.086;16.282;2023-02-03T17:55:09;20.70;99.90
12922;DHT22;6528;48.086;16.282;2023-02-03T17:57:37;20.70;99.90
12922;DHT22;6528;48.086;16.282;2023-02-03T18:00:04;20.60;99.90
12922;DHT22;6528;48.086;16.282;2023-02-03T18:02:31;20.60;99.90
12922;DHT22;6528;48.086;16.282;2023-02-03T18:04:58;20.60;99.90
12922;DHT22;6528;48.086;16.282;2023-02-03T18:07:25;20.60;99.90
12922;DHT22;6528;48.086;16.282;2023-02-03T18:09:51;20.60;99.90
12922;DHT22;6528;48.086;16.282;2023-02-03T18:12:18;20.60;99.90
12922;DHT22;6528;48.086;16.282;2023-02-03T18:14:45;20.60;99.90
12922;DHT22;6528;48.086;16.282;2023-02-03T18:17:11;20.50;99.90
12922;DHT22;6528;48.086;16.282;2023-02-03T18:19:38;20.50;99.90
12922;DHT22;6528;48.086;16.282;2023-02-03T18:22:06;20.40;99.90
12922;DHT22;6528;48.086;16.282;2023-02-03T18:24:33;20.40;99.90